createdAt,value
2022-12-31T00:01:52.031Z,99901.13
2022-12-31T00:06:01.782Z,99897.08
2022-12-31T00:10:11.201Z,99895.95
2022-12-31T00:14:18.845Z,99888.70
2022-12-31T00:18:27.098Z,99894.65
2022-12-31T00:22:34.687Z,99888.58
2022-12-31T00:26:42.352Z,99884.18
2022-12-31T00:30:49.883Z,99874.52
2022-12-31T00:34:58.157Z,99878.58
2022-12-31T00:39:08.522Z,99878.50
2022-12-31T00:43:16.626Z,99893.64
2022-12-31T00:47:24.701Z,99897.12
2022-12-31T00:51:32.809Z,99903.17
2022-12-31T00:55:40.239Z,99900.33
2022-12-31T00:59:47.932Z,99904.04
2022-12-31T01:03:57.470Z,99907.80
2022-12-31T01:08:05.406Z,99915.54
2022-12-31T01:12:12.882Z,99909.66
2022-12-31T01:16:22.773Z,99903.76
2022-12-31T01:20:30.619Z,99894.71
2022-12-31T01:24:38.686Z,99891.77
2022-12-31T01:28:46.465Z,99888.77
2022-12-31T01:32:54.829Z,99879.20
2022-12-31T01:37:02.532Z,99881.45
2022-12-31T01:41:11.685Z,99904.05
2022-12-31T01:45:19.701Z,99916.04
2022-12-31T01:49:30.636Z,99918.48
2022-12-31T01:53:40.908Z,99925.99
2022-12-31T01:57:51.121Z,99940.27
2022-12-31T02:01:59.233Z,99938.73
2022-12-31T02:06:11.883Z,99936.83
2022-12-31T02:10:19.701Z,99939.40
2022-12-31T02:14:30.257Z,99936.86
2022-12-31T02:18:47.314Z,99931.01
2022-12-31T02:23:15.257Z,99931.27
2022-12-31T02:27:35.454Z,99931.20
2022-12-31T02:31:47.752Z,99922.68
2022-12-31T02:35:59.467Z,99933.13
2022-12-31T02:40:11.619Z,99938.73
2022-12-31T02:44:27.369Z,99945.11
2022-12-31T02:48:45.244Z,99955.98
2022-12-31T02:53:04.080Z,99957.97
2022-12-31T02:57:17.222Z,99954.52
2022-12-31T03:01:47.262Z,99950.48
2022-12-31T03:05:55.677Z,99944.56
2022-12-31T03:10:03.271Z,99949.02
2022-12-31T03:14:11.716Z,99957.48
2022-12-31T03:18:41.287Z,99951.89
2022-12-31T03:22:49.025Z,99950.06
2022-12-31T03:26:56.679Z,99960.50
2022-12-31T03:31:05.098Z,99977.49
2022-12-31T03:35:14.185Z,99987.36
2022-12-31T03:39:22.916Z,99991.91
2022-12-31T03:43:30.614Z,99993.34
2022-12-31T03:47:38.244Z,99997.75
2022-12-31T03:51:46.165Z,100001.89
2022-12-31T03:55:55.288Z,100006.16
2022-12-31T04:00:02.431Z,99997.33
2022-12-31T04:04:10.540Z,99987.38
2022-12-31T04:08:17.954Z,99971.73
2022-12-31T04:12:25.251Z,99974.66
2022-12-31T04:16:33.762Z,99977.48
2022-12-31T04:20:43.164Z,99969.23
2022-12-31T04:24:51.126Z,99957.61
2022-12-31T04:28:58.397Z,99948.22
2022-12-31T04:33:05.990Z,99951.64
2022-12-31T04:37:14.424Z,99960.29
2022-12-31T04:41:21.962Z,99987.27
2022-12-31T04:45:29.575Z,99991.09
2022-12-31T04:49:37.090Z,99984.08
2022-12-31T04:53:44.900Z,99986.17
2022-12-31T04:57:52.132Z,99992.05
2022-12-31T05:02:01.595Z,99996.19
2022-12-31T05:06:12.657Z,99990.88
2022-12-31T05:10:21.441Z,99981.48
2022-12-31T05:14:29.204Z,99974.20
2022-12-31T05:18:37.326Z,99966.18
2022-12-31T05:22:45.485Z,99976.02
2022-12-31T05:26:53.962Z,99982.05
2022-12-31T05:31:02.796Z,99981.71
2022-12-31T05:35:11.520Z,99981.52
2022-12-31T05:39:19.312Z,99995.77
2022-12-31T05:43:28.514Z,99990.99
2022-12-31T05:47:37.157Z,99981.78
2022-12-31T05:51:44.935Z,99984.88
2022-12-31T05:55:52.525Z,99987.17
2022-12-31T06:00:00.453Z,99985.96
2022-12-31T06:04:09.464Z,99997.98
2022-12-31T06:08:16.940Z,100001.10
2022-12-31T06:12:25.130Z,99997.70
2022-12-31T06:16:32.408Z,99988.14
2022-12-31T06:20:41.243Z,99990.36
2022-12-31T06:24:49.105Z,100003.95
2022-12-31T06:28:56.406Z,100011.10
2022-12-31T06:33:06.633Z,100011.60
2022-12-31T06:37:17.224Z,100014.14
2022-12-31T06:41:26.246Z,100012.70
2022-12-31T06:45:34.656Z,100003.09
2022-12-31T06:49:42.567Z,99998.55
2022-12-31T06:53:51.826Z,99997.77
2022-12-31T06:58:00.837Z,100005.36
2022-12-31T07:02:31.620Z,100017.98
2022-12-31T07:06:45.973Z,100021.13
2022-12-31T07:11:00.035Z,100015.90
2022-12-31T07:15:14.911Z,100024.78
2022-12-31T07:19:36.441Z,100021.98
2022-12-31T07:23:46.089Z,100025.38
2022-12-31T07:28:03.015Z,100023.91
2022-12-31T07:32:16.545Z,100025.09
2022-12-31T07:36:34.107Z,100036.16
2022-12-31T07:40:57.725Z,100031.67
2022-12-31T07:45:09.229Z,100026.27
2022-12-31T07:49:18.367Z,100023.00
2022-12-31T07:53:27.745Z,100037.00
2022-12-31T07:57:42.790Z,100032.35
2022-12-31T08:01:53.793Z,100041.31
2022-12-31T08:06:14.132Z,100046.41
2022-12-31T08:10:28.747Z,100052.92
2022-12-31T08:14:41.813Z,100049.41
2022-12-31T08:18:52.071Z,100041.73
2022-12-31T08:23:19.560Z,100038.67
2022-12-31T08:27:32.647Z,100042.25
2022-12-31T08:31:50.000Z,100047.09
2022-12-31T08:36:07.503Z,100052.69
2022-12-31T08:40:24.196Z,100045.08
2022-12-31T08:44:37.129Z,100052.45
2022-12-31T08:48:48.664Z,100043.25
2022-12-31T08:52:57.960Z,100035.13
2022-12-31T08:57:15.705Z,100031.57
2022-12-31T09:01:26.299Z,100026.88
2022-12-31T09:05:41.079Z,100025.92
2022-12-31T09:10:05.927Z,100023.24
2022-12-31T09:14:23.455Z,100023.52
2022-12-31T09:18:33.443Z,100027.33
2022-12-31T09:22:42.693Z,100030.68
2022-12-31T09:26:59.346Z,100037.11
2022-12-31T09:31:10.420Z,100032.23
2022-12-31T09:35:27.106Z,100027.13
2022-12-31T09:39:41.439Z,100027.41
2022-12-31T09:44:20.760Z,100029.41
2022-12-31T09:49:05.043Z,100018.96
2022-12-31T09:53:24.416Z,100016.40
2022-12-31T09:57:41.541Z,100022.69
2022-12-31T10:01:54.998Z,100032.26
2022-12-31T10:06:16.251Z,100028.77
2022-12-31T10:10:36.345Z,100022.05
2022-12-31T10:14:55.828Z,100023.23
2022-12-31T10:19:32.204Z,100015.73
2022-12-31T10:24:04.910Z,100017.02
2022-12-31T10:28:31.263Z,100021.93
2022-12-31T10:32:46.064Z,100021.33
2022-12-31T10:36:59.844Z,100019.91
2022-12-31T10:41:38.470Z,100025.23
2022-12-31T10:46:00.274Z,100015.21
2022-12-31T10:50:45.938Z,100014.95
2022-12-31T10:55:27.522Z,100012.15
2022-12-31T11:00:22.612Z,100010.66
2022-12-31T11:04:54.140Z,100002.02
2022-12-31T11:09:34.763Z,100002.27
2022-12-31T11:14:14.250Z,100001.26
2022-12-31T11:18:32.530Z,99991.36
2022-12-31T11:22:54.944Z,99980.19
2022-12-31T11:27:15.095Z,99982.24
2022-12-31T11:31:33.863Z,99973.45
2022-12-31T11:36:01.116Z,99973.77
2022-12-31T11:40:42.181Z,99973.39
2022-12-31T11:44:59.291Z,99964.83
2022-12-31T11:49:34.450Z,99957.73
2022-12-31T11:53:57.592Z,99956.78
2022-12-31T11:58:17.326Z,99959.57
2022-12-31T12:02:28.631Z,99955.40
2022-12-31T12:06:37.100Z,99955.20
2022-12-31T12:10:51.713Z,99965.55
2022-12-31T12:14:59.445Z,99960.80
2022-12-31T12:19:15.905Z,99959.57
2022-12-31T12:23:27.959Z,99968.38
2022-12-31T12:27:37.303Z,99966.87
2022-12-31T12:31:46.216Z,99975.90
2022-12-31T12:35:54.052Z,99985.48
2022-12-31T12:40:03.628Z,99987.48
2022-12-31T12:44:17.223Z,99985.35
2022-12-31T12:48:31.399Z,99992.21
2022-12-31T12:53:03.470Z,99990.54
2022-12-31T12:57:16.869Z,99991.70
2022-12-31T13:01:31.243Z,99988.77
2022-12-31T13:05:46.445Z,99994.23
2022-12-31T13:10:13.155Z,100003.44
2022-12-31T13:14:26.254Z,100004.15
2022-12-31T13:18:47.938Z,100005.80
2022-12-31T13:23:00.202Z,99994.51
2022-12-31T13:27:15.168Z,100000.33
2022-12-31T13:31:25.585Z,100005.16
2022-12-31T13:35:39.472Z,100008.13
2022-12-31T13:39:48.160Z,100009.30
2022-12-31T13:44:00.163Z,100017.23
2022-12-31T13:48:13.708Z,100020.19
2022-12-31T13:52:29.173Z,100030.23
2022-12-31T13:56:40.002Z,100035.33
2022-12-31T14:00:50.575Z,100037.76
2022-12-31T14:05:00.889Z,100036.49
2022-12-31T14:09:10.821Z,100036.83
2022-12-31T14:13:38.706Z,100044.21
2022-12-31T14:17:57.929Z,100049.27
2022-12-31T14:22:08.952Z,100058.43
2022-12-31T14:26:22.889Z,100058.41
2022-12-31T14:30:34.180Z,100062.72
2022-12-31T14:34:49.898Z,100069.11
2022-12-31T14:39:07.724Z,100065.43
2022-12-31T14:43:20.796Z,100059.46
2022-12-31T14:47:38.040Z,100055.42
2022-12-31T14:51:45.917Z,100052.48
2022-12-31T14:56:02.659Z,100054.09
2022-12-31T15:00:27.547Z,100056.63
2022-12-31T15:04:46.743Z,100057.38
2022-12-31T15:09:08.813Z,100069.15
2022-12-31T15:13:23.374Z,100064.61
2022-12-31T15:17:38.455Z,100065.23
2022-12-31T15:21:56.260Z,100063.34
2022-12-31T15:26:05.678Z,100063.35
2022-12-31T15:30:37.125Z,100059.54
2022-12-31T15:34:45.563Z,100062.34
2022-12-31T15:38:56.648Z,100065.71
2022-12-31T15:43:09.898Z,100070.44
2022-12-31T15:47:22.305Z,100074.80
2022-12-31T15:51:34.174Z,100080.15
2022-12-31T15:55:44.880Z,100082.73
2022-12-31T15:59:52.792Z,100090.53
2022-12-31T16:04:02.009Z,100099.48
2022-12-31T16:08:14.668Z,100108.98
2022-12-31T16:12:32.480Z,100105.96
2022-12-31T16:16:41.404Z,100109.73
2022-12-31T16:20:52.355Z,100116.50
2022-12-31T16:25:29.678Z,100124.77
2022-12-31T16:29:31.089Z,100130.41
2022-12-31T16:33:40.388Z,100131.10
2022-12-31T16:37:47.733Z,100133.23
2022-12-31T16:42:01.101Z,100130.55
2022-12-31T16:46:15.701Z,100123.59
2022-12-31T16:50:27.124Z,100131.94
2022-12-31T16:54:38.302Z,100132.60
2022-12-31T16:58:47.519Z,100133.44
2022-12-31T17:03:07.475Z,100137.66
2022-12-31T17:07:40.429Z,100141.14
2022-12-31T17:11:53.151Z,100140.48
2022-12-31T17:16:01.995Z,100144.73
2022-12-31T17:20:19.965Z,100147.88
2022-12-31T17:24:28.056Z,100151.92
2022-12-31T17:28:43.662Z,100152.02
2022-12-31T17:32:53.320Z,100153.98
2022-12-31T17:37:04.475Z,100158.79
2022-12-31T17:41:28.612Z,100164.77
2022-12-31T17:45:39.295Z,100163.52
2022-12-31T17:49:48.455Z,100169.83
2022-12-31T17:53:56.032Z,100182.39
2022-12-31T17:58:06.863Z,100185.61
2022-12-31T18:02:17.237Z,100185.09
2022-12-31T18:06:26.998Z,100190.42
2022-12-31T18:10:37.976Z,100194.36
2022-12-31T18:14:46.831Z,100194.34
2022-12-31T18:18:54.776Z,100194.40
2022-12-31T18:23:02.789Z,100192.75
2022-12-31T18:27:16.543Z,100201.98
2022-12-31T18:31:25.800Z,100198.75
2022-12-31T18:40:04.097Z,100185.60
2022-12-31T18:44:13.891Z,100188.55
2022-12-31T18:48:21.744Z,100190.66
2022-12-31T18:52:29.498Z,100179.92
2022-12-31T18:56:41.863Z,100183.45
2022-12-31T19:00:53.760Z,100185.30
2022-12-31T19:05:01.276Z,100184.94
2022-12-31T19:09:23.658Z,100187.85
2022-12-31T19:13:36.637Z,100187.94
2022-12-31T19:17:44.462Z,100189.50
2022-12-31T19:21:52.767Z,100191.95
2022-12-31T19:26:01.982Z,100195.58
2022-12-31T19:30:16.631Z,100187.84
2022-12-31T19:34:24.408Z,100188.38
2022-12-31T19:38:32.877Z,100191.68
2022-12-31T19:42:41.262Z,100189.95
2022-12-31T19:46:50.105Z,100185.04
2022-12-31T19:50:57.849Z,100192.48
2022-12-31T19:55:06.572Z,100194.42
2022-12-31T19:59:14.114Z,100187.30
2022-12-31T20:03:21.801Z,100192.48
2022-12-31T20:07:29.599Z,100190.85
2022-12-31T20:11:37.260Z,100192.52
2022-12-31T20:15:47.972Z,100192.88
2022-12-31T20:19:56.270Z,100194.27
2022-12-31T20:24:04.983Z,100189.88
2022-12-31T20:28:14.126Z,100191.91
2022-12-31T20:32:21.524Z,100197.03
2022-12-31T20:36:29.186Z,100200.54
2022-12-31T20:40:41.440Z,100202.00
2022-12-31T20:44:52.290Z,100204.58
2022-12-31T20:49:01.431Z,100196.91
2022-12-31T20:53:10.273Z,100194.19
2022-12-31T20:57:18.160Z,100192.13
2022-12-31T21:01:41.402Z,100188.63
2022-12-31T21:05:56.532Z,100195.46
2022-12-31T21:10:04.595Z,100206.64
2022-12-31T21:14:12.362Z,100203.34
2022-12-31T21:18:20.359Z,100209.70
2022-12-31T21:22:30.428Z,100206.94
2022-12-31T21:26:39.792Z,100203.06
2022-12-31T21:30:47.221Z,100198.44
2022-12-31T21:35:31.160Z,100195.44
2022-12-31T21:39:22.374Z,100187.94
2022-12-31T21:43:30.845Z,100178.52
2022-12-31T21:48:07.978Z,100181.13
2022-12-31T21:52:30.475Z,100171.70
2022-12-31T21:56:37.872Z,100179.77
2022-12-31T22:01:03.451Z,100181.97
2022-12-31T22:05:18.638Z,100191.38
2022-12-31T22:09:31.175Z,100192.48
2022-12-31T22:13:39.813Z,100185.31
2022-12-31T22:17:48.101Z,100191.79
2022-12-31T22:21:55.727Z,100191.40
2022-12-31T22:26:04.337Z,100192.11
2022-12-31T22:30:13.629Z,100193.20
2022-12-31T22:34:21.763Z,100189.85
2022-12-31T22:38:30.481Z,100190.04
2022-12-31T22:42:39.590Z,100184.47
2022-12-31T22:46:49.301Z,100188.05
2022-12-31T22:51:01.193Z,100179.42
2022-12-31T22:55:11.104Z,100180.73
2022-12-31T22:59:18.443Z,100182.92
2022-12-31T23:03:26.476Z,100186.16
2022-12-31T23:07:34.614Z,100186.48
2022-12-31T23:11:43.323Z,100189.44
2022-12-31T23:16:08.695Z,100173.45
2022-12-31T23:20:36.192Z,100171.10
2022-12-31T23:24:43.869Z,100174.10
2022-12-31T23:28:52.103Z,100175.86
2022-12-31T23:33:00.105Z,100180.80
2022-12-31T23:37:07.901Z,100180.24
2022-12-31T23:41:21.705Z,100172.00
2022-12-31T23:45:33.305Z,100163.54
2022-12-31T23:49:41.584Z,100169.02
2022-12-31T23:53:49.101Z,100182.45
2022-12-31T23:57:58.928Z,100198.34
